sensor_id;sensor_type;location;lat;lon;timestamp;P1;durP1;ratioP1;P2;durP2;ratioP2
9106;SDS011;4589;48.690;8.952;2022-12-18T00:01:27;18.60;;;9.90;;
9106;SDS011;4589;48.690;8.952;2022-12-18T00:03:58;31.10;;;14.25;;
9106;SDS011;4589;48.690;8.952;2022-12-18T00:06:25;27.63;;;13.60;;
9106;SDS011;4589;48.690;8.952;2022-12-18T00:08:52;26.73;;;14.18;;
9106;SDS011;4589;48.690;8.952;2022-12-18T00:11:19;35.20;;;10.67;;
9106;SDS011;4589;48.690;8.952;2022-12-18T00:13:46;24.42;;;11.30;;
9106;SDS011;4589;48.690;8.952;2022-12-18T00:16:14;25.98;;;11.20;;
9106;SDS011;4589;48.690;8.952;2022-12-18T00:18:41;25.98;;;10.80;;
9106;SDS011;4589;48.690;8.952;2022-12-18T00:21:08;31.23;;;14.57;;
9106;SDS011;4589;48.690;8.952;2022-12-18T00:23:35;21.98;;;11.75;;
9106;SDS011;4589;48.690;8.952;2022-12-18T00:26:02;20.20;;;10.70;;
9106;SDS011;4589;48.690;8.952;2022-12-18T00:28:31;21.08;;;10.02;;
9106;SDS011;4589;48.690;8.952;2022-12-18T00:31:04;26.48;;;9.57;;
9106;SDS011;4589;48.690;8.952;2022-12-18T00:33:31;25.65;;;12.60;;
9106;SDS011;4589;48.690;8.952;2022-12-18T00:36:31;17.63;;;8.55;;
9106;SDS011;4589;48.690;8.952;2022-12-18T00:38:54;32.38;;;16.00;;
9106;SDS011;4589;48.690;8.952;2022-12-18T00:41:21;26.10;;;12.88;;
9106;SDS011;4589;48.690;8.952;2022-12-18T00:44:07;30.02;;;10.48;;
9106;SDS011;4589;48.690;8.952;2022-12-18T00:46:34;16.48;;;11.05;;
9106;SDS011;4589;48.690;8.952;2022-12-18T00:48:59;22.93;;;10.70;;
9106;SDS011;4589;48.690;8.952;2022-12-18T00:51:25;14.90;;;11.53;;
9106;SDS011;4589;48.690;8.952;2022-12-18T00:53:51;24.58;;;10.55;;
9106;SDS011;4589;48.690;8.952;2022-12-18T00:56:17;22.45;;;9.93;;
9106;SDS011;4589;48.690;8.952;2022-12-18T00:58:43;18.77;;;11.23;;
9106;SDS011;4589;48.690;8.952;2022-12-18T01:01:09;24.33;;;11.23;;
9106;SDS011;4589;48.690;8.952;2022-12-18T01:03:35;24.80;;;11.77;;
9106;SDS011;4589;48.690;8.952;2022-12-18T01:06:08;22.07;;;10.73;;
9106;SDS011;4589;48.690;8.952;2022-12-18T01:08:35;22.73;;;10.48;;
9106;SDS011;4589;48.690;8.952;2022-12-18T01:11:01;22.47;;;11.20;;
9106;SDS011;4589;48.690;8.952;2022-12-18T01:13:32;26.52;;;10.88;;
9106;SDS011;4589;48.690;8.952;2022-12-18T01:15:58;43.50;;;16.80;;
9106;SDS011;4589;48.690;8.952;2022-12-18T01:18:24;27.47;;;11.20;;
9106;SDS011;4589;48.690;8.952;2022-12-18T01:20:50;14.83;;;8.57;;
9106;SDS011;4589;48.690;8.952;2022-12-18T01:23:16;34.50;;;12.57;;
9106;SDS011;4589;48.690;8.952;2022-12-18T01:25:42;25.90;;;11.87;;
9106;SDS011;4589;48.690;8.952;2022-12-18T01:28:08;16.30;;;11.77;;
9106;SDS011;4589;48.690;8.952;2022-12-18T01:30:33;21.80;;;11.93;;
9106;SDS011;4589;48.690;8.952;2022-12-18T01:32:59;30.63;;;10.27;;
9106;SDS011;4589;48.690;8.952;2022-12-18T01:35:25;21.87;;;10.40;;
9106;SDS011;4589;48.690;8.952;2022-12-18T01:37:54;14.53;;;8.57;;
9106;SDS011;4589;48.690;8.952;2022-12-18T01:40:20;16.13;;;10.80;;
9106;SDS011;4589;48.690;8.952;2022-12-18T01:42:49;22.23;;;10.30;;
9106;SDS011;4589;48.690;8.952;2022-12-18T01:50:13;24.33;;;8.20;;
9106;SDS011;4589;48.690;8.952;2022-12-18T01:52:43;16.55;;;10.27;;
9106;SDS011;4589;48.690;8.952;2022-12-18T01:55:13;16.70;;;9.90;;
9106;SDS011;4589;48.690;8.952;2022-12-18T01:57:42;20.55;;;10.38;;
9106;SDS011;4589;48.690;8.952;2022-12-18T02:00:10;21.67;;;10.23;;
9106;SDS011;4589;48.690;8.952;2022-12-18T02:02:38;18.52;;;10.90;;
9106;SDS011;4589;48.690;8.952;2022-12-18T02:05:05;14.02;;;10.13;;
9106;SDS011;4589;48.690;8.952;2022-12-18T02:07:37;14.82;;;9.50;;
9106;SDS011;4589;48.690;8.952;2022-12-18T02:10:25;68.70;;;9.20;;
9106;SDS011;4589;48.690;8.952;2022-12-18T02:18:49;11.80;;;5.95;;
9106;SDS011;4589;48.690;8.952;2022-12-18T02:24:29;30.80;;;10.27;;
9106;SDS011;4589;48.690;8.952;2022-12-18T02:27:11;9.25;;;7.25;;
9106;SDS011;4589;48.690;8.952;2022-12-18T02:29:39;29.15;;;9.95;;
9106;SDS011;4589;48.690;8.952;2022-12-18T02:32:11;17.52;;;8.68;;
9106;SDS011;4589;48.690;8.952;2022-12-18T02:34:41;13.77;;;9.27;;
9106;SDS011;4589;48.690;8.952;2022-12-18T02:37:10;19.50;;;9.65;;
9106;SDS011;4589;48.690;8.952;2022-12-18T02:39:38;16.25;;;10.02;;
9106;SDS011;4589;48.690;8.952;2022-12-18T02:42:06;11.85;;;5.90;;
9106;SDS011;4589;48.690;8.952;2022-12-18T02:44:41;17.52;;;10.52;;
9106;SDS011;4589;48.690;8.952;2022-12-18T02:47:10;11.15;;;8.18;;
9106;SDS011;4589;48.690;8.952;2022-12-18T02:55:08;11.88;;;8.00;;
9106;SDS011;4589;48.690;8.952;2022-12-18T02:57:53;15.40;;;9.45;;
9106;SDS011;4589;48.690;8.952;2022-12-18T03:03:02;16.43;;;10.17;;
9106;SDS011;4589;48.690;8.952;2022-12-18T03:06:20;24.60;;;11.65;;
9106;SDS011;4589;48.690;8.952;2022-12-18T03:08:30;15.63;;;9.63;;
9106;SDS011;4589;48.690;8.952;2022-12-18T03:11:05;9.85;;;7.55;;
9106;SDS011;4589;48.690;8.952;2022-12-18T03:15:59;19.73;;;10.15;;
9106;SDS011;4589;48.690;8.952;2022-12-18T03:18:35;42.58;;;11.48;;
9106;SDS011;4589;48.690;8.952;2022-12-18T03:21:10;20.55;;;9.30;;
9106;SDS011;4589;48.690;8.952;2022-12-18T03:23:40;28.65;;;13.00;;
9106;SDS011;4589;48.690;8.952;2022-12-18T03:26:10;20.85;;;11.85;;
9106;SDS011;4589;48.690;8.952;2022-12-18T03:28:48;66.53;;;11.80;;
9106;SDS011;4589;48.690;8.952;2022-12-18T03:31:17;23.25;;;10.45;;
9106;SDS011;4589;48.690;8.952;2022-12-18T03:33:56;19.67;;;10.55;;
9106;SDS011;4589;48.690;8.952;2022-12-18T03:36:24;19.25;;;9.32;;
9106;SDS011;4589;48.690;8.952;2022-12-18T03:38:50;27.37;;;10.73;;
9106;SDS011;4589;48.690;8.952;2022-12-18T03:47:05;22.40;;;9.52;;
9106;SDS011;4589;48.690;8.952;2022-12-18T03:49:48;19.40;;;9.82;;
9106;SDS011;4589;48.690;8.952;2022-12-18T03:52:36;21.27;;;12.27;;
9106;SDS011;4589;48.690;8.952;2022-12-18T03:55:14;17.95;;;7.93;;
9106;SDS011;4589;48.690;8.952;2022-12-18T03:57:41;20.17;;;9.18;;
9106;SDS011;4589;48.690;8.952;2022-12-18T04:00:12;29.85;;;10.52;;
9106;SDS011;4589;48.690;8.952;2022-12-18T04:02:44;18.67;;;9.60;;
9106;SDS011;4589;48.690;8.952;2022-12-18T04:05:14;24.38;;;11.05;;
9106;SDS011;4589;48.690;8.952;2022-12-18T04:07:41;18.55;;;9.30;;
9106;SDS011;4589;48.690;8.952;2022-12-18T04:10:08;18.13;;;9.43;;
9106;SDS011;4589;48.690;8.952;2022-12-18T04:12:38;21.38;;;10.30;;
9106;SDS011;4589;48.690;8.952;2022-12-18T04:15:05;17.52;;;10.57;;
9106;SDS011;4589;48.690;8.952;2022-12-18T04:17:31;27.13;;;11.27;;
9106;SDS011;4589;48.690;8.952;2022-12-18T04:19:57;32.53;;;11.07;;
9106;SDS011;4589;48.690;8.952;2022-12-18T04:22:23;14.57;;;8.83;;
9106;SDS011;4589;48.690;8.952;2022-12-18T04:24:49;21.87;;;9.23;;
9106;SDS011;4589;48.690;8.952;2022-12-18T04:27:15;23.73;;;11.63;;
9106;SDS011;4589;48.690;8.952;2022-12-18T04:29:41;22.97;;;9.60;;
9106;SDS011;4589;48.690;8.952;2022-12-18T04:32:07;30.57;;;11.00;;
9106;SDS011;4589;48.690;8.952;2022-12-18T04:34:33;19.73;;;8.20;;
9106;SDS011;4589;48.690;8.952;2022-12-18T04:36:59;20.10;;;8.90;;
9106;SDS011;4589;48.690;8.952;2022-12-18T04:39:25;18.40;;;11.70;;
9106;SDS011;4589;48.690;8.952;2022-12-18T04:41:51;19.77;;;10.37;;
9106;SDS011;4589;48.690;8.952;2022-12-18T04:44:17;26.10;;;13.97;;
9106;SDS011;4589;48.690;8.952;2022-12-18T04:46:43;26.40;;;12.80;;
9106;SDS011;4589;48.690;8.952;2022-12-18T04:49:09;107.50;;;37.57;;
9106;SDS011;4589;48.690;8.952;2022-12-18T04:51:35;26.73;;;14.40;;
9106;SDS011;4589;48.690;8.952;2022-12-18T04:54:02;24.67;;;10.98;;
9106;SDS011;4589;48.690;8.952;2022-12-18T04:56:28;20.00;;;10.52;;
9106;SDS011;4589;48.690;8.952;2022-12-18T04:58:55;27.92;;;10.80;;
9106;SDS011;4589;48.690;8.952;2022-12-18T05:01:21;27.13;;;10.67;;
9106;SDS011;4589;48.690;8.952;2022-12-18T05:03:47;31.70;;;14.70;;
9106;SDS011;4589;48.690;8.952;2022-12-18T05:06:13;16.03;;;7.57;;
9106;SDS011;4589;48.690;8.952;2022-12-18T05:08:39;24.30;;;9.85;;
9106;SDS011;4589;48.690;8.952;2022-12-18T05:11:06;18.93;;;9.63;;
9106;SDS011;4589;48.690;8.952;2022-12-18T05:13:33;21.13;;;8.95;;
9106;SDS011;4589;48.690;8.952;2022-12-18T05:15:59;20.77;;;10.88;;
9106;SDS011;4589;48.690;8.952;2022-12-18T05:18:25;18.30;;;9.17;;
9106;SDS011;4589;48.690;8.952;2022-12-18T05:20:52;22.95;;;10.70;;
9106;SDS011;4589;48.690;8.952;2022-12-18T05:23:18;35.60;;;14.20;;
9106;SDS011;4589;48.690;8.952;2022-12-18T05:25:54;21.58;;;12.07;;
9106;SDS011;4589;48.690;8.952;2022-12-18T05:28:22;26.30;;;12.68;;
9106;SDS011;4589;48.690;8.952;2022-12-18T05:30:49;21.70;;;10.75;;
9106;SDS011;4589;48.690;8.952;2022-12-18T05:33:16;25.77;;;10.25;;
9106;SDS011;4589;48.690;8.952;2022-12-18T05:35:42;13.88;;;9.63;;
9106;SDS011;4589;48.690;8.952;2022-12-18T05:38:08;14.45;;;7.88;;
9106;SDS011;4589;48.690;8.952;2022-12-18T05:40:34;12.23;;;6.90;;
9106;SDS011;4589;48.690;8.952;2022-12-18T05:43:00;20.27;;;10.18;;
9106;SDS011;4589;48.690;8.952;2022-12-18T05:45:26;21.42;;;9.73;;
9106;SDS011;4589;48.690;8.952;2022-12-18T05:47:52;23.90;;;8.77;;
9106;SDS011;4589;48.690;8.952;2022-12-18T05:50:18;27.70;;;10.63;;
9106;SDS011;4589;48.690;8.952;2022-12-18T05:52:43;24.93;;;10.50;;
9106;SDS011;4589;48.690;8.952;2022-12-18T05:55:09;38.17;;;11.63;;
9106;SDS011;4589;48.690;8.952;2022-12-18T05:57:35;19.13;;;7.90;;
9106;SDS011;4589;48.690;8.952;2022-12-18T06:00:02;23.30;;;10.48;;
9106;SDS011;4589;48.690;8.952;2022-12-18T06:02:28;19.42;;;10.27;;
9106;SDS011;4589;48.690;8.952;2022-12-18T06:04:54;24.27;;;11.50;;
9106;SDS011;4589;48.690;8.952;2022-12-18T06:07:20;22.27;;;10.27;;
9106;SDS011;4589;48.690;8.952;2022-12-18T06:09:46;24.37;;;11.37;;
9106;SDS011;4589;48.690;8.952;2022-12-18T06:12:12;19.23;;;11.80;;
9106;SDS011;4589;48.690;8.952;2022-12-18T06:14:38;22.70;;;12.50;;
9106;SDS011;4589;48.690;8.952;2022-12-18T06:17:03;20.80;;;11.10;;
9106;SDS011;4589;48.690;8.952;2022-12-18T06:19:29;15.27;;;9.02;;
9106;SDS011;4589;48.690;8.952;2022-12-18T06:21:55;19.73;;;9.98;;
9106;SDS011;4589;48.690;8.952;2022-12-18T06:24:23;13.00;;;8.07;;
9106;SDS011;4589;48.690;8.952;2022-12-18T06:26:49;16.50;;;9.30;;
9106;SDS011;4589;48.690;8.952;2022-12-18T06:29:15;24.93;;;14.57;;
9106;SDS011;4589;48.690;8.952;2022-12-18T06:31:41;19.50;;;10.80;;
9106;SDS011;4589;48.690;8.952;2022-12-18T06:34:07;18.50;;;10.00;;
9106;SDS011;4589;48.690;8.952;2022-12-18T06:36:33;26.37;;;12.73;;
9106;SDS011;4589;48.690;8.952;2022-12-18T06:38:59;21.33;;;11.20;;
9106;SDS011;4589;48.690;8.952;2022-12-18T06:41:25;21.20;;;11.43;;
9106;SDS011;4589;48.690;8.952;2022-12-18T06:43:51;19.17;;;9.90;;
9106;SDS011;4589;48.690;8.952;2022-12-18T06:46:16;23.40;;;9.80;;
9106;SDS011;4589;48.690;8.952;2022-12-18T06:48:42;30.83;;;10.48;;
9106;SDS011;4589;48.690;8.952;2022-12-18T06:51:08;22.50;;;8.90;;
9106;SDS011;4589;48.690;8.952;2022-12-18T06:53:34;34.77;;;12.00;;
9106;SDS011;4589;48.690;8.952;2022-12-18T06:56:04;27.57;;;10.90;;
9106;SDS011;4589;48.690;8.952;2022-12-18T06:58:31;16.73;;;9.63;;
9106;SDS011;4589;48.690;8.952;2022-12-18T07:01:00;33.43;;;13.30;;
9106;SDS011;4589;48.690;8.952;2022-12-18T07:03:27;37.72;;;14.65;;
9106;SDS011;4589;48.690;8.952;2022-12-18T07:05:53;27.13;;;10.95;;
9106;SDS011;4589;48.690;8.952;2022-12-18T07:08:19;31.90;;;10.73;;
9106;SDS011;4589;48.690;8.952;2022-12-18T07:10:44;33.47;;;11.40;;
9106;SDS011;4589;48.690;8.952;2022-12-18T07:13:10;31.95;;;11.90;;
9106;SDS011;4589;48.690;8.952;2022-12-18T07:15:36;21.70;;;10.97;;
9106;SDS011;4589;48.690;8.952;2022-12-18T07:18:02;37.70;;;11.20;;
9106;SDS011;4589;48.690;8.952;2022-12-18T07:20:28;24.63;;;11.70;;
9106;SDS011;4589;48.690;8.952;2022-12-18T07:22:54;20.87;;;9.70;;
9106;SDS011;4589;48.690;8.952;2022-12-18T07:25:20;36.55;;;11.13;;
9106;SDS011;4589;48.690;8.952;2022-12-18T07:27:46;30.17;;;10.67;;
9106;SDS011;4589;48.690;8.952;2022-12-18T07:30:12;25.83;;;12.53;;
9106;SDS011;4589;48.690;8.952;2022-12-18T07:32:38;19.73;;;10.83;;
9106;SDS011;4589;48.690;8.952;2022-12-18T07:35:03;20.60;;;11.57;;
9106;SDS011;4589;48.690;8.952;2022-12-18T07:37:29;21.70;;;11.20;;
9106;SDS011;4589;48.690;8.952;2022-12-18T07:39:55;29.10;;;10.73;;
9106;SDS011;4589;48.690;8.952;2022-12-18T07:42:21;23.90;;;10.90;;
9106;SDS011;4589;48.690;8.952;2022-12-18T07:44:56;35.28;;;13.65;;
9106;SDS011;4589;48.690;8.952;2022-12-18T07:47:22;28.83;;;12.52;;
9106;SDS011;4589;48.690;8.952;2022-12-18T07:49:47;33.63;;;14.70;;
9106;SDS011;4589;48.690;8.952;2022-12-18T07:52:14;22.50;;;11.55;;
9106;SDS011;4589;48.690;8.952;2022-12-18T07:54:40;30.00;;;13.15;;
9106;SDS011;4589;48.690;8.952;2022-12-18T07:57:06;30.47;;;14.03;;
9106;SDS011;4589;48.690;8.952;2022-12-18T07:59:32;35.45;;;13.27;;
9106;SDS011;4589;48.690;8.952;2022-12-18T08:01:58;26.53;;;11.97;;
9106;SDS011;4589;48.690;8.952;2022-12-18T08:04:24;34.80;;;16.05;;
9106;SDS011;4589;48.690;8.952;2022-12-18T08:06:50;32.83;;;17.90;;
9106;SDS011;4589;48.690;8.952;2022-12-18T08:09:16;32.63;;;13.23;;
9106;SDS011;4589;48.690;8.952;2022-12-18T08:11:42;21.15;;;11.60;;
9106;SDS011;4589;48.690;8.952;2022-12-18T08:14:09;21.05;;;11.65;;
9106;SDS011;4589;48.690;8.952;2022-12-18T08:16:35;25.05;;;14.25;;
9106;SDS011;4589;48.690;8.952;2022-12-18T08:19:01;36.83;;;14.27;;
9106;SDS011;4589;48.690;8.952;2022-12-18T08:21:28;22.55;;;13.63;;
9106;SDS011;4589;48.690;8.952;2022-12-18T08:23:56;39.70;;;17.13;;
9106;SDS011;4589;48.690;8.952;2022-12-18T08:26:26;32.85;;;17.70;;
9106;SDS011;4589;48.690;8.952;2022-12-18T08:28:54;25.55;;;14.00;;
9106;SDS011;4589;48.690;8.952;2022-12-18T08:31:20;22.85;;;14.13;;
9106;SDS011;4589;48.690;8.952;2022-12-18T08:33:48;31.55;;;16.40;;
9106;SDS011;4589;48.690;8.952;2022-12-18T08:36:15;34.88;;;16.17;;
9106;SDS011;4589;48.690;8.952;2022-12-18T08:38:40;25.90;;;13.30;;
9106;SDS011;4589;48.690;8.952;2022-12-18T08:41:08;23.90;;;14.50;;
9106;SDS011;4589;48.690;8.952;2022-12-18T08:43:35;34.88;;;15.02;;
9106;SDS011;4589;48.690;8.952;2022-12-18T08:46:19;22.92;;;12.43;;
9106;SDS011;4589;48.690;8.952;2022-12-18T08:48:46;30.90;;;15.82;;
9106;SDS011;4589;48.690;8.952;2022-12-18T08:51:12;31.35;;;15.02;;
9106;SDS011;4589;48.690;8.952;2022-12-18T08:53:38;25.57;;;14.97;;
9106;SDS011;4589;48.690;8.952;2022-12-18T08:56:04;29.65;;;15.73;;
9106;SDS011;4589;48.690;8.952;2022-12-18T08:58:30;32.42;;;17.73;;
9106;SDS011;4589;48.690;8.952;2022-12-18T09:01:00;32.77;;;18.00;;
9106;SDS011;4589;48.690;8.952;2022-12-18T09:03:26;28.00;;;13.17;;
9106;SDS011;4589;48.690;8.952;2022-12-18T09:05:52;31.00;;;14.23;;
9106;SDS011;4589;48.690;8.952;2022-12-18T09:08:18;35.57;;;18.00;;
9106;SDS011;4589;48.690;8.952;2022-12-18T09:10:44;34.27;;;19.00;;
9106;SDS011;4589;48.690;8.952;2022-12-18T09:13:11;33.60;;;18.70;;
9106;SDS011;4589;48.690;8.952;2022-12-18T09:15:41;35.50;;;19.43;;
9106;SDS011;4589;48.690;8.952;2022-12-18T09:18:07;26.70;;;12.43;;
9106;SDS011;4589;48.690;8.952;2022-12-18T09:20:34;33.87;;;17.90;;
9106;SDS011;4589;48.690;8.952;2022-12-18T09:23:01;31.73;;;16.70;;
9106;SDS011;4589;48.690;8.952;2022-12-18T09:25:28;30.73;;;16.97;;
9106;SDS011;4589;48.690;8.952;2022-12-18T09:27:57;33.40;;;18.20;;
9106;SDS011;4589;48.690;8.952;2022-12-18T09:30:46;33.70;;;19.10;;
9106;SDS011;4589;48.690;8.952;2022-12-18T09:33:13;38.10;;;18.80;;
9106;SDS011;4589;48.690;8.952;2022-12-18T09:35:40;40.00;;;20.13;;
9106;SDS011;4589;48.690;8.952;2022-12-18T09:38:07;30.07;;;16.43;;
9106;SDS011;4589;48.690;8.952;2022-12-18T09:40:36;38.73;;;18.23;;
9106;SDS011;4589;48.690;8.952;2022-12-18T09:43:17;32.37;;;18.23;;
9106;SDS011;4589;48.690;8.952;2022-12-18T09:46:10;27.63;;;16.67;;
9106;SDS011;4589;48.690;8.952;2022-12-18T09:48:42;28.03;;;17.80;;
9106;SDS011;4589;48.690;8.952;2022-12-18T09:51:13;30.57;;;16.60;;
9106;SDS011;4589;48.690;8.952;2022-12-18T09:53:44;37.30;;;18.20;;
9106;SDS011;4589;48.690;8.952;2022-12-18T09:56:16;27.10;;;16.73;;
9106;SDS011;4589;48.690;8.952;2022-12-18T09:58:49;27.17;;;16.87;;
9106;SDS011;4589;48.690;8.952;2022-12-18T10:01:22;28.70;;;15.47;;
9106;SDS011;4589;48.690;8.952;2022-12-18T10:03:49;31.90;;;16.17;;
9106;SDS011;4589;48.690;8.952;2022-12-18T10:06:18;27.07;;;16.50;;
9106;SDS011;4589;48.690;8.952;2022-12-18T10:09:29;32.77;;;18.47;;
9106;SDS011;4589;48.690;8.952;2022-12-18T10:20:18;34.40;;;19.90;;
9106;SDS011;4589;48.690;8.952;2022-12-18T10:25:20;27.50;;;16.40;;
9106;SDS011;4589;48.690;8.952;2022-12-18T10:27:54;30.70;;;17.50;;
9106;SDS011;4589;48.690;8.952;2022-12-18T10:30:25;24.70;;;13.73;;
9106;SDS011;4589;48.690;8.952;2022-12-18T10:32:51;30.90;;;17.40;;
9106;SDS011;4589;48.690;8.952;2022-12-18T10:37:59;31.17;;;17.33;;
9106;SDS011;4589;48.690;8.952;2022-12-18T10:40:30;28.57;;;17.40;;
9106;SDS011;4589;48.690;8.952;2022-12-18T10:43:10;34.20;;;17.23;;
9106;SDS011;4589;48.690;8.952;2022-12-18T10:45:38;31.33;;;17.37;;
9106;SDS011;4589;48.690;8.952;2022-12-18T10:48:04;29.70;;;17.13;;
9106;SDS011;4589;48.690;8.952;2022-12-18T10:50:42;24.53;;;14.17;;
9106;SDS011;4589;48.690;8.952;2022-12-18T10:53:15;36.20;;;18.10;;
9106;SDS011;4589;48.690;8.952;2022-12-18T10:55:48;30.43;;;17.37;;
9106;SDS011;4589;48.690;8.952;2022-12-18T11:00:40;34.37;;;17.60;;
9106;SDS011;4589;48.690;8.952;2022-12-18T11:03:28;29.60;;;16.17;;
9106;SDS011;4589;48.690;8.952;2022-12-18T11:08:39;28.13;;;15.57;;
9106;SDS011;4589;48.690;8.952;2022-12-18T11:11:07;31.57;;;15.80;;
9106;SDS011;4589;48.690;8.952;2022-12-18T11:13:49;30.87;;;16.13;;
9106;SDS011;4589;48.690;8.952;2022-12-18T11:16:42;26.77;;;16.20;;
9106;SDS011;4589;48.690;8.952;2022-12-18T11:19:20;29.67;;;17.60;;
9106;SDS011;4589;48.690;8.952;2022-12-18T11:22:17;28.80;;;15.90;;
9106;SDS011;4589;48.690;8.952;2022-12-18T11:24:52;31.50;;;17.03;;
9106;SDS011;4589;48.690;8.952;2022-12-18T11:30:28;31.53;;;17.60;;
9106;SDS011;4589;48.690;8.952;2022-12-18T11:44:15;27.13;;;15.87;;
9106;SDS011;4589;48.690;8.952;2022-12-18T11:46:49;29.50;;;16.50;;
9106;SDS011;4589;48.690;8.952;2022-12-18T11:49:21;30.47;;;16.67;;
9106;SDS011;4589;48.690;8.952;2022-12-18T11:51:55;28.60;;;17.10;;
9106;SDS011;4589;48.690;8.952;2022-12-18T11:54:26;25.83;;;15.77;;
9106;SDS011;4589;48.690;8.952;2022-12-18T11:56:56;27.20;;;15.60;;
9106;SDS011;4589;48.690;8.952;2022-12-18T11:59:38;26.07;;;15.47;;
9106;SDS011;4589;48.690;8.952;2022-12-18T12:05:14;30.90;;;17.77;;
9106;SDS011;4589;48.690;8.952;2022-12-18T12:10:37;28.10;;;16.27;;
9106;SDS011;4589;48.690;8.952;2022-12-18T12:34:37;32.05;;;16.52;;
9106;SDS011;4589;48.690;8.952;2022-12-18T12:37:24;25.88;;;15.02;;
9106;SDS011;4589;48.690;8.952;2022-12-18T12:40:02;28.90;;;15.13;;
9106;SDS011;4589;48.690;8.952;2022-12-18T12:42:38;30.60;;;17.63;;
9106;SDS011;4589;48.690;8.952;2022-12-18T12:45:34;41.08;;;18.80;;
9106;SDS011;4589;48.690;8.952;2022-12-18T12:48:15;32.53;;;17.00;;
9106;SDS011;4589;48.690;8.952;2022-12-18T12:50:44;31.02;;;17.27;;
9106;SDS011;4589;48.690;8.952;2022-12-18T12:53:14;32.42;;;17.73;;
9106;SDS011;4589;48.690;8.952;2022-12-18T12:55:46;29.27;;;15.48;;
9106;SDS011;4589;48.690;8.952;2022-12-18T13:03:39;35.38;;;16.60;;
9106;SDS011;4589;48.690;8.952;2022-12-18T13:08:54;36.57;;;17.43;;
9106;SDS011;4589;48.690;8.952;2022-12-18T13:11:29;29.58;;;14.82;;
9106;SDS011;4589;48.690;8.952;2022-12-18T13:14:25;28.73;;;16.33;;
9106;SDS011;4589;48.690;8.952;2022-12-18T13:17:13;32.35;;;16.50;;
9106;SDS011;4589;48.690;8.952;2022-12-18T13:19:44;38.67;;;16.52;;
9106;SDS011;4589;48.690;8.952;2022-12-18T13:28:05;33.25;;;16.90;;
9106;SDS011;4589;48.690;8.952;2022-12-18T13:40:56;31.25;;;15.55;;
9106;SDS011;4589;48.690;8.952;2022-12-18T13:43:27;33.17;;;17.50;;
9106;SDS011;4589;48.690;8.952;2022-12-18T13:48:23;41.43;;;19.10;;
9106;SDS011;4589;48.690;8.952;2022-12-18T13:56:16;37.80;;;17.83;;
9106;SDS011;4589;48.690;8.952;2022-12-18T13:58:42;37.70;;;16.05;;
9106;SDS011;4589;48.690;8.952;2022-12-18T14:01:21;35.23;;;15.23;;
9106;SDS011;4589;48.690;8.952;2022-12-18T14:03:47;43.60;;;19.73;;
9106;SDS011;4589;48.690;8.952;2022-12-18T14:06:13;44.75;;;18.92;;
9106;SDS011;4589;48.690;8.952;2022-12-18T14:08:41;50.97;;;22.40;;
9106;SDS011;4589;48.690;8.952;2022-12-18T14:11:17;52.00;;;21.08;;
9106;SDS011;4589;48.690;8.952;2022-12-18T14:13:46;40.22;;;20.08;;
9106;SDS011;4589;48.690;8.952;2022-12-18T14:16:13;43.05;;;20.33;;
9106;SDS011;4589;48.690;8.952;2022-12-18T14:21:18;46.80;;;19.58;;
9106;SDS011;4589;48.690;8.952;2022-12-18T14:24:03;43.67;;;21.15;;
9106;SDS011;4589;48.690;8.952;2022-12-18T14:26:30;50.28;;;21.00;;
9106;SDS011;4589;48.690;8.952;2022-12-18T14:28:58;44.75;;;21.45;;
9106;SDS011;4589;48.690;8.952;2022-12-18T14:31:29;42.80;;;19.85;;
9106;SDS011;4589;48.690;8.952;2022-12-18T14:33:56;47.20;;;20.83;;
9106;SDS011;4589;48.690;8.952;2022-12-18T14:36:23;44.70;;;20.87;;
9106;SDS011;4589;48.690;8.952;2022-12-18T14:38:54;47.75;;;19.88;;
9106;SDS011;4589;48.690;8.952;2022-12-18T14:41:22;41.72;;;20.67;;
9106;SDS011;4589;48.690;8.952;2022-12-18T14:43:52;56.53;;;24.30;;
9106;SDS011;4589;48.690;8.952;2022-12-18T14:48:53;45.88;;;18.77;;
9106;SDS011;4589;48.690;8.952;2022-12-18T14:51:23;56.03;;;23.13;;
9106;SDS011;4589;48.690;8.952;2022-12-18T14:53:55;56.40;;;22.83;;
9106;SDS011;4589;48.690;8.952;2022-12-18T14:56:30;62.17;;;23.17;;
9106;SDS011;4589;48.690;8.952;2022-12-18T15:01:31;46.03;;;23.75;;
9106;SDS011;4589;48.690;8.952;2022-12-18T15:04:01;57.53;;;24.67;;
9106;SDS011;4589;48.690;8.952;2022-12-18T15:06:35;45.47;;;21.05;;
9106;SDS011;4589;48.690;8.952;2022-12-18T15:09:06;48.70;;;23.42;;
9106;SDS011;4589;48.690;8.952;2022-12-18T15:11:49;53.47;;;24.27;;
9106;SDS011;4589;48.690;8.952;2022-12-18T15:14:22;49.75;;;22.60;;
9106;SDS011;4589;48.690;8.952;2022-12-18T15:17:05;63.35;;;25.55;;
9106;SDS011;4589;48.690;8.952;2022-12-18T15:19:40;54.25;;;21.50;;
9106;SDS011;4589;48.690;8.952;2022-12-18T15:22:15;50.15;;;22.20;;
9106;SDS011;4589;48.690;8.952;2022-12-18T15:24:47;54.10;;;21.90;;
9106;SDS011;4589;48.690;8.952;2022-12-18T15:27:33;49.35;;;23.23;;
9106;SDS011;4589;48.690;8.952;2022-12-18T15:32:38;63.75;;;25.02;;
9106;SDS011;4589;48.690;8.952;2022-12-18T15:37:40;66.80;;;28.25;;
9106;SDS011;4589;48.690;8.952;2022-12-18T15:40:06;56.05;;;26.65;;
9106;SDS011;4589;48.690;8.952;2022-12-18T15:42:36;61.55;;;23.95;;
9106;SDS011;4589;48.690;8.952;2022-12-18T15:45:20;45.33;;;23.40;;
9106;SDS011;4589;48.690;8.952;2022-12-18T15:47:46;59.50;;;22.10;;
9106;SDS011;4589;48.690;8.952;2022-12-18T15:50:12;47.80;;;20.80;;
9106;SDS011;4589;48.690;8.952;2022-12-18T15:52:41;53.43;;;21.63;;
9106;SDS011;4589;48.690;8.952;2022-12-18T15:55:12;53.05;;;22.40;;
9106;SDS011;4589;48.690;8.952;2022-12-18T15:57:58;42.42;;;19.50;;
9106;SDS011;4589;48.690;8.952;2022-12-18T16:00:24;65.87;;;23.83;;
9106;SDS011;4589;48.690;8.952;2022-12-18T16:02:50;53.03;;;22.67;;
9106;SDS011;4589;48.690;8.952;2022-12-18T16:05:16;60.37;;;25.50;;
9106;SDS011;4589;48.690;8.952;2022-12-18T16:07:44;56.92;;;22.58;;
9106;SDS011;4589;48.690;8.952;2022-12-18T16:10:10;54.00;;;23.58;;
9106;SDS011;4589;48.690;8.952;2022-12-18T16:12:37;59.72;;;29.00;;
9106;SDS011;4589;48.690;8.952;2022-12-18T16:15:04;57.25;;;26.20;;
9106;SDS011;4589;48.690;8.952;2022-12-18T16:17:30;69.07;;;27.52;;
9106;SDS011;4589;48.690;8.952;2022-12-18T16:19:56;77.53;;;31.42;;
9106;SDS011;4589;48.690;8.952;2022-12-18T16:22:26;68.90;;;29.90;;
9106;SDS011;4589;48.690;8.952;2022-12-18T16:24:53;89.80;;;33.15;;
9106;SDS011;4589;48.690;8.952;2022-12-18T16:27:20;78.10;;;34.17;;
9106;SDS011;4589;48.690;8.952;2022-12-18T16:29:46;72.10;;;32.80;;
9106;SDS011;4589;48.690;8.952;2022-12-18T16:32:14;66.17;;;31.53;;
9106;SDS011;4589;48.690;8.952;2022-12-18T16:34:41;82.95;;;34.05;;
9106;SDS011;4589;48.690;8.952;2022-12-18T16:37:09;96.47;;;42.63;;
9106;SDS011;4589;48.690;8.952;2022-12-18T16:39:35;67.65;;;33.15;;
9106;SDS011;4589;48.690;8.952;2022-12-18T16:42:06;77.53;;;36.30;;
9106;SDS011;4589;48.690;8.952;2022-12-18T16:44:39;81.15;;;33.70;;
9106;SDS011;4589;48.690;8.952;2022-12-18T16:47:05;80.65;;;36.72;;
9106;SDS011;4589;48.690;8.952;2022-12-18T16:49:31;66.57;;;32.00;;
9106;SDS011;4589;48.690;8.952;2022-12-18T16:51:57;73.37;;;33.13;;
9106;SDS011;4589;48.690;8.952;2022-12-18T16:54:23;79.50;;;33.95;;
9106;SDS011;4589;48.690;8.952;2022-12-18T16:56:49;83.10;;;35.23;;
9106;SDS011;4589;48.690;8.952;2022-12-18T16:59:16;81.72;;;36.03;;
9106;SDS011;4589;48.690;8.952;2022-12-18T17:01:42;73.63;;;35.40;;
9106;SDS011;4589;48.690;8.952;2022-12-18T17:04:08;59.88;;;28.63;;
9106;SDS011;4589;48.690;8.952;2022-12-18T17:06:35;61.67;;;29.97;;
9106;SDS011;4589;48.690;8.952;2022-12-18T17:09:05;68.78;;;34.58;;
9106;SDS011;4589;48.690;8.952;2022-12-18T17:11:33;74.50;;;33.92;;
9106;SDS011;4589;48.690;8.952;2022-12-18T17:14:04;64.30;;;31.48;;
9106;SDS011;4589;48.690;8.952;2022-12-18T17:16:31;77.20;;;32.55;;
9106;SDS011;4589;48.690;8.952;2022-12-18T17:18:56;68.80;;;31.80;;
9106;SDS011;4589;48.690;8.952;2022-12-18T17:21:22;64.03;;;31.00;;